sensor_id;sensor_type;location;lat;lon;timestamp;P1;durP1;ratioP1;P2;durP2;ratioP2
60612;SDS011;46443;59.792;17.626;2023-08-24T00:00:39;5.17;;;2.80;;
60612;SDS011;46443;59.792;17.626;2023-08-24T00:03:06;7.78;;;3.30;;
60612;SDS011;46443;59.792;17.626;2023-08-24T00:05:35;6.60;;;2.90;;
60612;SDS011;46443;59.792;17.626;2023-08-24T00:08:05;4.70;;;3.03;;
60612;SDS011;46443;59.792;17.626;2023-08-24T00:10:33;5.10;;;2.90;;
60612;SDS011;46443;59.792;17.626;2023-08-24T00:12:59;5.33;;;3.37;;
60612;SDS011;46443;59.792;17.626;2023-08-24T00:15:25;6.27;;;3.13;;
60612;SDS011;46443;59.792;17.626;2023-08-24T00:17:51;7.73;;;3.57;;
60612;SDS011;46443;59.792;17.626;2023-08-24T00:20:17;5.33;;;3.40;;
60612;SDS011;46443;59.792;17.626;2023-08-24T00:22:45;6.23;;;3.63;;
60612;SDS011;46443;59.792;17.626;2023-08-24T00:25:11;5.73;;;3.70;;
60612;SDS011;46443;59.792;17.626;2023-08-24T00:27:38;5.63;;;3.50;;
60612;SDS011;46443;59.792;17.626;2023-08-24T00:30:05;7.13;;;3.53;;
60612;SDS011;46443;59.792;17.626;2023-08-24T00:32:34;4.93;;;3.20;;
60612;SDS011;46443;59.792;17.626;2023-08-24T00:35:01;6.85;;;3.33;;
60612;SDS011;46443;59.792;17.626;2023-08-24T00:37:27;4.93;;;3.30;;
60612;SDS011;46443;59.792;17.626;2023-08-24T00:39:53;5.70;;;3.60;;
60612;SDS011;46443;59.792;17.626;2023-08-24T00:42:20;6.60;;;3.50;;
60612;SDS011;46443;59.792;17.626;2023-08-24T00:44:47;6.67;;;3.40;;
60612;SDS011;46443;59.792;17.626;2023-08-24T00:47:13;6.00;;;3.10;;
60612;SDS011;46443;59.792;17.626;2023-08-24T00:49:40;8.93;;;3.50;;
60612;SDS011;46443;59.792;17.626;2023-08-24T00:52:06;5.63;;;3.30;;
60612;SDS011;46443;59.792;17.626;2023-08-24T00:54:32;5.33;;;3.60;;
60612;SDS011;46443;59.792;17.626;2023-08-24T00:56:59;7.00;;;3.40;;
60612;SDS011;46443;59.792;17.626;2023-08-24T00:59:25;6.07;;;3.03;;
60612;SDS011;46443;59.792;17.626;2023-08-24T01:01:51;6.47;;;3.20;;
60612;SDS011;46443;59.792;17.626;2023-08-24T01:04:17;4.90;;;3.17;;
60612;SDS011;46443;59.792;17.626;2023-08-24T01:06:44;6.27;;;3.63;;
60612;SDS011;46443;59.792;17.626;2023-08-24T01:09:10;6.13;;;3.40;;
60612;SDS011;46443;59.792;17.626;2023-08-24T01:16:39;7.80;;;3.43;;
60612;SDS011;46443;59.792;17.626;2023-08-24T01:19:17;6.07;;;3.42;;
60612;SDS011;46443;59.792;17.626;2023-08-24T01:21:49;5.07;;;3.20;;
60612;SDS011;46443;59.792;17.626;2023-08-24T01:24:18;5.33;;;3.47;;
60612;SDS011;46443;59.792;17.626;2023-08-24T01:26:49;6.97;;;3.60;;
60612;SDS011;46443;59.792;17.626;2023-08-24T01:29:16;8.03;;;3.53;;
60612;SDS011;46443;59.792;17.626;2023-08-24T01:31:42;4.20;;;3.10;;
60612;SDS011;46443;59.792;17.626;2023-08-24T01:34:08;5.43;;;3.00;;
60612;SDS011;46443;59.792;17.626;2023-08-24T01:36:34;4.90;;;2.87;;
60612;SDS011;46443;59.792;17.626;2023-08-24T01:39:02;6.33;;;4.03;;
60612;SDS011;46443;59.792;17.626;2023-08-24T01:41:35;5.70;;;3.20;;
60612;SDS011;46443;59.792;17.626;2023-08-24T01:44:04;7.10;;;3.90;;
60612;SDS011;46443;59.792;17.626;2023-08-24T01:46:32;4.87;;;3.17;;
60612;SDS011;46443;59.792;17.626;2023-08-24T01:48:59;5.90;;;3.50;;
60612;SDS011;46443;59.792;17.626;2023-08-24T01:51:25;5.43;;;3.17;;
60612;SDS011;46443;59.792;17.626;2023-08-24T01:53:51;7.13;;;3.87;;
60612;SDS011;46443;59.792;17.626;2023-08-24T01:56:18;6.63;;;3.70;;
60612;SDS011;46443;59.792;17.626;2023-08-24T01:58:44;6.43;;;3.30;;
60612;SDS011;46443;59.792;17.626;2023-08-24T02:01:10;5.87;;;3.23;;
60612;SDS011;46443;59.792;17.626;2023-08-24T02:03:37;6.10;;;3.57;;
60612;SDS011;46443;59.792;17.626;2023-08-24T02:06:06;4.67;;;3.30;;
60612;SDS011;46443;59.792;17.626;2023-08-24T02:08:32;6.73;;;3.30;;
60612;SDS011;46443;59.792;17.626;2023-08-24T02:10:58;5.00;;;3.37;;
60612;SDS011;46443;59.792;17.626;2023-08-24T02:13:24;5.63;;;3.63;;
60612;SDS011;46443;59.792;17.626;2023-08-24T02:15:50;4.90;;;3.20;;
60612;SDS011;46443;59.792;17.626;2023-08-24T02:18:17;5.03;;;3.27;;
60612;SDS011;46443;59.792;17.626;2023-08-24T02:20:43;6.17;;;3.40;;
60612;SDS011;46443;59.792;17.626;2023-08-24T02:23:09;6.47;;;3.47;;
60612;SDS011;46443;59.792;17.626;2023-08-24T02:25:35;6.77;;;3.80;;
60612;SDS011;46443;59.792;17.626;2023-08-24T02:28:07;5.97;;;3.70;;
60612;SDS011;46443;59.792;17.626;2023-08-24T02:30:33;5.23;;;3.33;;
60612;SDS011;46443;59.792;17.626;2023-08-24T02:33:02;4.88;;;3.20;;
60612;SDS011;46443;59.792;17.626;2023-08-24T02:35:28;6.30;;;3.47;;
60612;SDS011;46443;59.792;17.626;2023-08-24T02:37:54;5.93;;;3.43;;
60612;SDS011;46443;59.792;17.626;2023-08-24T02:40:22;6.60;;;3.70;;
60612;SDS011;46443;59.792;17.626;2023-08-24T02:42:48;5.77;;;3.67;;
60612;SDS011;46443;59.792;17.626;2023-08-24T02:45:14;4.77;;;3.37;;
60612;SDS011;46443;59.792;17.626;2023-08-24T02:47:40;7.93;;;3.77;;
60612;SDS011;46443;59.792;17.626;2023-08-24T02:50:06;5.73;;;3.90;;
60612;SDS011;46443;59.792;17.626;2023-08-24T02:52:32;7.30;;;3.87;;
60612;SDS011;46443;59.792;17.626;2023-08-24T02:54:59;6.40;;;3.83;;
60612;SDS011;46443;59.792;17.626;2023-08-24T02:57:25;6.37;;;3.40;;
60612;SDS011;46443;59.792;17.626;2023-08-24T02:59:53;6.47;;;3.40;;
60612;SDS011;46443;59.792;17.626;2023-08-24T03:02:19;5.33;;;3.40;;
60612;SDS011;46443;59.792;17.626;2023-08-24T03:04:45;5.87;;;3.10;;
60612;SDS011;46443;59.792;17.626;2023-08-24T03:07:11;7.27;;;3.67;;
60612;SDS011;46443;59.792;17.626;2023-08-24T03:09:37;5.47;;;3.50;;
60612;SDS011;46443;59.792;17.626;2023-08-24T03:12:04;6.20;;;3.67;;
60612;SDS011;46443;59.792;17.626;2023-08-24T03:14:30;7.27;;;3.63;;
60612;SDS011;46443;59.792;17.626;2023-08-24T03:16:56;6.40;;;3.87;;
60612;SDS011;46443;59.792;17.626;2023-08-24T03:19:22;6.37;;;3.83;;
60612;SDS011;46443;59.792;17.626;2023-08-24T03:21:48;8.57;;;3.53;;
60612;SDS011;46443;59.792;17.626;2023-08-24T03:24:14;6.77;;;3.83;;
60612;SDS011;46443;59.792;17.626;2023-08-24T03:26:40;8.27;;;3.70;;
60612;SDS011;46443;59.792;17.626;2023-08-24T03:29:06;6.80;;;3.67;;
60612;SDS011;46443;59.792;17.626;2023-08-24T03:31:32;7.33;;;4.13;;
60612;SDS011;46443;59.792;17.626;2023-08-24T03:33:59;8.83;;;4.60;;
60612;SDS011;46443;59.792;17.626;2023-08-24T03:36:25;5.17;;;3.70;;
60612;SDS011;46443;59.792;17.626;2023-08-24T03:38:51;7.43;;;3.70;;
60612;SDS011;46443;59.792;17.626;2023-08-24T03:41:17;6.47;;;3.90;;
60612;SDS011;46443;59.792;17.626;2023-08-24T03:43:43;6.70;;;3.83;;
60612;SDS011;46443;59.792;17.626;2023-08-24T03:46:09;7.40;;;3.87;;
60612;SDS011;46443;59.792;17.626;2023-08-24T03:48:35;6.53;;;4.00;;
60612;SDS011;46443;59.792;17.626;2023-08-24T03:51:01;8.07;;;3.73;;
60612;SDS011;46443;59.792;17.626;2023-08-24T03:53:27;6.87;;;4.17;;
60612;SDS011;46443;59.792;17.626;2023-08-24T03:55:53;5.83;;;3.57;;
60612;SDS011;46443;59.792;17.626;2023-08-24T03:58:20;5.47;;;3.80;;
60612;SDS011;46443;59.792;17.626;2023-08-24T04:00:46;5.73;;;3.97;;
60612;SDS011;46443;59.792;17.626;2023-08-24T04:03:12;7.07;;;3.70;;
60612;SDS011;46443;59.792;17.626;2023-08-24T04:05:38;6.13;;;3.63;;
60612;SDS011;46443;59.792;17.626;2023-08-24T04:08:04;6.97;;;4.00;;
60612;SDS011;46443;59.792;17.626;2023-08-24T04:10:30;9.13;;;4.63;;
60612;SDS011;46443;59.792;17.626;2023-08-24T04:12:56;6.07;;;3.80;;
60612;SDS011;46443;59.792;17.626;2023-08-24T04:15:23;7.80;;;3.83;;
60612;SDS011;46443;59.792;17.626;2023-08-24T04:17:49;5.90;;;4.00;;
60612;SDS011;46443;59.792;17.626;2023-08-24T04:20:15;6.97;;;4.23;;
60612;SDS011;46443;59.792;17.626;2023-08-24T04:22:41;5.43;;;3.80;;
60612;SDS011;46443;59.792;17.626;2023-08-24T04:25:08;5.67;;;4.20;;
60612;SDS011;46443;59.792;17.626;2023-08-24T04:27:34;6.40;;;3.57;;
60612;SDS011;46443;59.792;17.626;2023-08-24T04:30:00;6.60;;;3.83;;
60612;SDS011;46443;59.792;17.626;2023-08-24T04:32:28;6.60;;;3.80;;
60612;SDS011;46443;59.792;17.626;2023-08-24T04:34:54;7.90;;;4.50;;
60612;SDS011;46443;59.792;17.626;2023-08-24T04:37:20;6.47;;;3.83;;
60612;SDS011;46443;59.792;17.626;2023-08-24T04:39:46;6.53;;;3.53;;
60612;SDS011;46443;59.792;17.626;2023-08-24T04:42:12;6.83;;;3.70;;
60612;SDS011;46443;59.792;17.626;2023-08-24T04:44:38;6.77;;;3.43;;
60612;SDS011;46443;59.792;17.626;2023-08-24T04:47:05;5.37;;;3.50;;
60612;SDS011;46443;59.792;17.626;2023-08-24T04:49:31;9.97;;;3.80;;
60612;SDS011;46443;59.792;17.626;2023-08-24T04:51:57;8.93;;;4.07;;
60612;SDS011;46443;59.792;17.626;2023-08-24T04:54:23;5.60;;;3.70;;
60612;SDS011;46443;59.792;17.626;2023-08-24T04:56:49;9.57;;;3.90;;
60612;SDS011;46443;59.792;17.626;2023-08-24T04:59:15;8.13;;;4.07;;
60612;SDS011;46443;59.792;17.626;2023-08-24T05:01:41;6.60;;;3.80;;
60612;SDS011;46443;59.792;17.626;2023-08-24T05:04:07;7.50;;;4.00;;
60612;SDS011;46443;59.792;17.626;2023-08-24T05:06:33;5.93;;;3.93;;
60612;SDS011;46443;59.792;17.626;2023-08-24T05:08:59;7.83;;;4.10;;
60612;SDS011;46443;59.792;17.626;2023-08-24T05:11:26;7.17;;;3.70;;
60612;SDS011;46443;59.792;17.626;2023-08-24T05:13:54;5.63;;;3.50;;
60612;SDS011;46443;59.792;17.626;2023-08-24T05:16:21;6.23;;;3.83;;
60612;SDS011;46443;59.792;17.626;2023-08-24T05:18:47;8.30;;;3.57;;
60612;SDS011;46443;59.792;17.626;2023-08-24T05:21:13;6.50;;;3.60;;
60612;SDS011;46443;59.792;17.626;2023-08-24T05:23:39;7.10;;;3.70;;
60612;SDS011;46443;59.792;17.626;2023-08-24T05:26:05;6.97;;;3.83;;
60612;SDS011;46443;59.792;17.626;2023-08-24T05:28:31;8.13;;;3.70;;
60612;SDS011;46443;59.792;17.626;2023-08-24T05:30:58;9.37;;;3.57;;
60612;SDS011;46443;59.792;17.626;2023-08-24T05:33:24;8.10;;;3.37;;
60612;SDS011;46443;59.792;17.626;2023-08-24T05:35:51;7.47;;;3.60;;
60612;SDS011;46443;59.792;17.626;2023-08-24T05:38:17;5.80;;;3.50;;
60612;SDS011;46443;59.792;17.626;2023-08-24T05:40:45;8.77;;;3.70;;
60612;SDS011;46443;59.792;17.626;2023-08-24T05:43:12;7.93;;;3.80;;
60612;SDS011;46443;59.792;17.626;2023-08-24T05:45:38;7.23;;;3.47;;
60612;SDS011;46443;59.792;17.626;2023-08-24T05:48:05;8.67;;;3.63;;
60612;SDS011;46443;59.792;17.626;2023-08-24T05:50:31;5.67;;;3.47;;
60612;SDS011;46443;59.792;17.626;2023-08-24T05:52:57;6.67;;;3.60;;
60612;SDS011;46443;59.792;17.626;2023-08-24T05:55:23;6.30;;;3.57;;
60612;SDS011;46443;59.792;17.626;2023-08-24T05:57:49;11.33;;;3.60;;
60612;SDS011;46443;59.792;17.626;2023-08-24T06:00:15;7.63;;;3.50;;
60612;SDS011;46443;59.792;17.626;2023-08-24T06:02:41;8.43;;;3.90;;
60612;SDS011;46443;59.792;17.626;2023-08-24T06:05:07;7.33;;;3.33;;
60612;SDS011;46443;59.792;17.626;2023-08-24T06:07:34;8.10;;;3.60;;
60612;SDS011;46443;59.792;17.626;2023-08-24T06:10:01;5.63;;;3.77;;
60612;SDS011;46443;59.792;17.626;2023-08-24T06:12:27;7.70;;;3.67;;
60612;SDS011;46443;59.792;17.626;2023-08-24T06:14:53;7.13;;;3.33;;
60612;SDS011;46443;59.792;17.626;2023-08-24T06:17:19;7.70;;;3.67;;
60612;SDS011;46443;59.792;17.626;2023-08-24T06:19:45;5.73;;;3.60;;
60612;SDS011;46443;59.792;17.626;2023-08-24T06:22:11;5.60;;;3.60;;
60612;SDS011;46443;59.792;17.626;2023-08-24T06:24:37;7.23;;;3.60;;
60612;SDS011;46443;59.792;17.626;2023-08-24T06:27:03;7.60;;;3.80;;
60612;SDS011;46443;59.792;17.626;2023-08-24T06:29:29;8.50;;;3.70;;
60612;SDS011;46443;59.792;17.626;2023-08-24T06:31:55;7.13;;;3.50;;
60612;SDS011;46443;59.792;17.626;2023-08-24T06:34:21;5.43;;;3.43;;
60612;SDS011;46443;59.792;17.626;2023-08-24T06:36:49;8.77;;;3.87;;
60612;SDS011;46443;59.792;17.626;2023-08-24T06:39:15;9.88;;;3.80;;
60612;SDS011;46443;59.792;17.626;2023-08-24T06:41:41;6.77;;;3.47;;
60612;SDS011;46443;59.792;17.626;2023-08-24T06:44:08;7.97;;;3.67;;
60612;SDS011;46443;59.792;17.626;2023-08-24T06:46:34;6.17;;;3.63;;
60612;SDS011;46443;59.792;17.626;2023-08-24T06:49:00;5.87;;;3.57;;
60612;SDS011;46443;59.792;17.626;2023-08-24T06:51:26;7.90;;;3.67;;
60612;SDS011;46443;59.792;17.626;2023-08-24T06:53:53;8.85;;;3.83;;
60612;SDS011;46443;59.792;17.626;2023-08-24T06:56:19;7.63;;;3.40;;
60612;SDS011;46443;59.792;17.626;2023-08-24T06:58:45;6.32;;;3.30;;
60612;SDS011;46443;59.792;17.626;2023-08-24T07:01:11;7.88;;;4.03;;
60612;SDS011;46443;59.792;17.626;2023-08-24T07:03:37;6.10;;;3.78;;
60612;SDS011;46443;59.792;17.626;2023-08-24T07:06:07;7.40;;;3.97;;
60612;SDS011;46443;59.792;17.626;2023-08-24T07:08:33;7.03;;;3.80;;
60612;SDS011;46443;59.792;17.626;2023-08-24T07:11:00;7.88;;;3.70;;
60612;SDS011;46443;59.792;17.626;2023-08-24T07:13:26;4.78;;;3.30;;
60612;SDS011;46443;59.792;17.626;2023-08-24T07:15:53;6.95;;;3.83;;
60612;SDS011;46443;59.792;17.626;2023-08-24T07:18:20;7.97;;;3.63;;
60612;SDS011;46443;59.792;17.626;2023-08-24T07:20:46;14.82;;;4.35;;
60612;SDS011;46443;59.792;17.626;2023-08-24T07:23:12;6.57;;;3.72;;
60612;SDS011;46443;59.792;17.626;2023-08-24T07:25:38;8.32;;;4.07;;
60612;SDS011;46443;59.792;17.626;2023-08-24T07:28:04;4.50;;;3.20;;
60612;SDS011;46443;59.792;17.626;2023-08-24T07:30:32;5.57;;;3.10;;
60612;SDS011;46443;59.792;17.626;2023-08-24T07:32:58;6.97;;;3.63;;
60612;SDS011;46443;59.792;17.626;2023-08-24T07:35:24;5.60;;;3.65;;
60612;SDS011;46443;59.792;17.626;2023-08-24T07:37:51;9.80;;;3.30;;
60612;SDS011;46443;59.792;17.626;2023-08-24T07:40:17;6.25;;;3.38;;
60612;SDS011;46443;59.792;17.626;2023-08-24T07:42:44;7.47;;;3.28;;
60612;SDS011;46443;59.792;17.626;2023-08-24T07:45:10;5.35;;;2.97;;
60612;SDS011;46443;59.792;17.626;2023-08-24T07:47:37;5.88;;;2.95;;
60612;SDS011;46443;59.792;17.626;2023-08-24T07:50:03;5.85;;;3.17;;
60612;SDS011;46443;59.792;17.626;2023-08-24T07:52:29;5.65;;;3.17;;
60612;SDS011;46443;59.792;17.626;2023-08-24T07:54:55;6.45;;;3.38;;
60612;SDS011;46443;59.792;17.626;2023-08-24T07:57:24;4.88;;;3.10;;
60612;SDS011;46443;59.792;17.626;2023-08-24T07:59:51;5.72;;;3.40;;
60612;SDS011;46443;59.792;17.626;2023-08-24T08:02:17;5.80;;;3.40;;
60612;SDS011;46443;59.792;17.626;2023-08-24T08:04:43;5.22;;;3.05;;
60612;SDS011;46443;59.792;17.626;2023-08-24T08:07:09;7.47;;;3.13;;
60612;SDS011;46443;59.792;17.626;2023-08-24T08:09:36;5.55;;;3.10;;
60612;SDS011;46443;59.792;17.626;2023-08-24T08:12:02;5.30;;;3.00;;
60612;SDS011;46443;59.792;17.626;2023-08-24T08:14:29;5.38;;;3.13;;
60612;SDS011;46443;59.792;17.626;2023-08-24T08:16:58;4.75;;;3.08;;
60612;SDS011;46443;59.792;17.626;2023-08-24T08:19:24;5.70;;;2.67;;
60612;SDS011;46443;59.792;17.626;2023-08-24T08:21:53;6.65;;;2.83;;
60612;SDS011;46443;59.792;17.626;2023-08-24T08:24:19;6.15;;;3.40;;
60612;SDS011;46443;59.792;17.626;2023-08-24T08:26:45;6.93;;;2.90;;
60612;SDS011;46443;59.792;17.626;2023-08-24T08:29:11;5.75;;;3.38;;
60612;SDS011;46443;59.792;17.626;2023-08-24T08:31:37;6.35;;;3.05;;
60612;SDS011;46443;59.792;17.626;2023-08-24T08:34:03;6.30;;;2.65;;
60612;SDS011;46443;59.792;17.626;2023-08-24T08:36:29;6.25;;;2.60;;
60612;SDS011;46443;59.792;17.626;2023-08-24T08:38:59;7.85;;;3.00;;
60612;SDS011;46443;59.792;17.626;2023-08-24T08:41:26;4.45;;;3.20;;
60612;SDS011;46443;59.792;17.626;2023-08-24T08:43:53;7.32;;;3.20;;
60612;SDS011;46443;59.792;17.626;2023-08-24T08:46:19;8.30;;;2.80;;
60612;SDS011;46443;59.792;17.626;2023-08-24T08:48:46;7.78;;;3.05;;
60612;SDS011;46443;59.792;17.626;2023-08-24T08:51:12;4.45;;;2.80;;
60612;SDS011;46443;59.792;17.626;2023-08-24T08:53:39;7.68;;;2.85;;
60612;SDS011;46443;59.792;17.626;2023-08-24T08:56:05;4.80;;;2.90;;
60612;SDS011;46443;59.792;17.626;2023-08-24T08:58:32;5.30;;;2.90;;
60612;SDS011;46443;59.792;17.626;2023-08-24T09:01:01;7.70;;;3.20;;
60612;SDS011;46443;59.792;17.626;2023-08-24T09:03:28;5.55;;;2.88;;
60612;SDS011;46443;59.792;17.626;2023-08-24T09:05:57;5.43;;;2.42;;
60612;SDS011;46443;59.792;17.626;2023-08-24T09:08:23;3.88;;;2.83;;
60612;SDS011;46443;59.792;17.626;2023-08-24T09:10:51;5.50;;;2.80;;
60612;SDS011;46443;59.792;17.626;2023-08-24T09:13:17;6.38;;;2.90;;
60612;SDS011;46443;59.792;17.626;2023-08-24T09:15:43;4.13;;;2.35;;
60612;SDS011;46443;59.792;17.626;2023-08-24T09:18:09;5.68;;;2.67;;
60612;SDS011;46443;59.792;17.626;2023-08-24T09:20:35;4.88;;;2.55;;
60612;SDS011;46443;59.792;17.626;2023-08-24T09:23:01;5.82;;;2.30;;
60612;SDS011;46443;59.792;17.626;2023-08-24T09:25:28;4.18;;;2.40;;
60612;SDS011;46443;59.792;17.626;2023-08-24T09:27:57;4.85;;;2.65;;
60612;SDS011;46443;59.792;17.626;2023-08-24T09:30:28;6.03;;;2.80;;
60612;SDS011;46443;59.792;17.626;2023-08-24T09:32:54;5.10;;;2.85;;
60612;SDS011;46443;59.792;17.626;2023-08-24T09:35:20;6.93;;;2.80;;
60612;SDS011;46443;59.792;17.626;2023-08-24T09:37:49;5.88;;;3.00;;
60612;SDS011;46443;59.792;17.626;2023-08-24T09:40:15;4.18;;;2.60;;
60612;SDS011;46443;59.792;17.626;2023-08-24T09:42:42;5.72;;;2.70;;
60612;SDS011;46443;59.792;17.626;2023-08-24T09:45:09;5.20;;;3.30;;
60612;SDS011;46443;59.792;17.626;2023-08-24T09:47:37;4.53;;;2.33;;
60612;SDS011;46443;59.792;17.626;2023-08-24T09:50:03;5.47;;;2.78;;
60612;SDS011;46443;59.792;17.626;2023-08-24T09:52:33;5.78;;;2.85;;
60612;SDS011;46443;59.792;17.626;2023-08-24T09:55:02;5.53;;;3.03;;
60612;SDS011;46443;59.792;17.626;2023-08-24T09:57:36;5.82;;;3.13;;
60612;SDS011;46443;59.792;17.626;2023-08-24T10:00:04;4.85;;;3.22;;
60612;SDS011;46443;59.792;17.626;2023-08-24T10:02:35;4.90;;;3.30;;
60612;SDS011;46443;59.792;17.626;2023-08-24T10:05:02;5.10;;;3.17;;
60612;SDS011;46443;59.792;17.626;2023-08-24T10:07:28;7.70;;;3.20;;
60612;SDS011;46443;59.792;17.626;2023-08-24T10:12:23;4.43;;;2.78;;
60612;SDS011;46443;59.792;17.626;2023-08-24T10:14:53;4.20;;;2.50;;
60612;SDS011;46443;59.792;17.626;2023-08-24T10:17:22;3.22;;;2.40;;
60612;SDS011;46443;59.792;17.626;2023-08-24T10:19:48;8.15;;;2.75;;
60612;SDS011;46443;59.792;17.626;2023-08-24T10:22:16;6.30;;;2.50;;
60612;SDS011;46443;59.792;17.626;2023-08-24T10:24:43;5.95;;;3.10;;
60612;SDS011;46443;59.792;17.626;2023-08-24T10:27:10;6.28;;;2.45;;
60612;SDS011;46443;59.792;17.626;2023-08-24T10:29:37;4.00;;;2.30;;
60612;SDS011;46443;59.792;17.626;2023-08-24T10:32:03;5.45;;;2.63;;
60612;SDS011;46443;59.792;17.626;2023-08-24T10:34:30;6.80;;;2.00;;
60612;SDS011;46443;59.792;17.626;2023-08-24T10:36:56;3.55;;;1.95;;
60612;SDS011;46443;59.792;17.626;2023-08-24T10:39:28;4.50;;;2.20;;
60612;SDS011;46443;59.792;17.626;2023-08-24T10:41:54;3.85;;;1.80;;
60612;SDS011;46443;59.792;17.626;2023-08-24T10:44:24;4.97;;;2.40;;
60612;SDS011;46443;59.792;17.626;2023-08-24T10:49:35;3.85;;;2.00;;
60612;SDS011;46443;59.792;17.626;2023-08-24T10:52:22;3.75;;;2.15;;
60612;SDS011;46443;59.792;17.626;2023-08-24T10:54:49;5.10;;;2.30;;
60612;SDS011;46443;59.792;17.626;2023-08-24T10:57:25;5.28;;;2.28;;
60612;SDS011;46443;59.792;17.626;2023-08-24T11:05:07;5.90;;;2.10;;
60612;SDS011;46443;59.792;17.626;2023-08-24T11:07:50;6.90;;;2.58;;
60612;SDS011;46443;59.792;17.626;2023-08-24T11:10:16;4.97;;;2.13;;
60612;SDS011;46443;59.792;17.626;2023-08-24T11:15:30;4.40;;;2.05;;
60612;SDS011;46443;59.792;17.626;2023-08-24T11:20:42;3.47;;;1.92;;
60612;SDS011;46443;59.792;17.626;2023-08-24T11:23:08;4.40;;;2.13;;
60612;SDS011;46443;59.792;17.626;2023-08-24T11:25:37;2.25;;;1.70;;
60612;SDS011;46443;59.792;17.626;2023-08-24T11:28:04;3.20;;;1.92;;
60612;SDS011;46443;59.792;17.626;2023-08-24T11:30:31;3.08;;;1.80;;
60612;SDS011;46443;59.792;17.626;2023-08-24T11:32:58;4.32;;;2.10;;
60612;SDS011;46443;59.792;17.626;2023-08-24T11:35:24;3.25;;;1.70;;
60612;SDS011;46443;59.792;17.626;2023-08-24T11:37:54;3.70;;;1.75;;
60612;SDS011;46443;59.792;17.626;2023-08-24T11:40:20;3.13;;;1.67;;
60612;SDS011;46443;59.792;17.626;2023-08-24T11:42:53;3.50;;;2.00;;
60612;SDS011;46443;59.792;17.626;2023-08-24T11:45:20;3.33;;;1.95;;
60612;SDS011;46443;59.792;17.626;2023-08-24T11:47:46;5.18;;;2.15;;
60612;SDS011;46443;59.792;17.626;2023-08-24T11:50:13;3.42;;;2.05;;
60612;SDS011;46443;59.792;17.626;2023-08-24T11:52:39;3.78;;;2.00;;
60612;SDS011;46443;59.792;17.626;2023-08-24T11:55:05;3.95;;;1.92;;
60612;SDS011;46443;59.792;17.626;2023-08-24T11:57:33;5.28;;;2.38;;
60612;SDS011;46443;59.792;17.626;2023-08-24T11:59:59;3.35;;;1.98;;
60612;SDS011;46443;59.792;17.626;2023-08-24T12:02:26;4.40;;;1.95;;
60612;SDS011;46443;59.792;17.626;2023-08-24T12:04:53;5.03;;;2.15;;
60612;SDS011;46443;59.792;17.626;2023-08-24T12:07:20;4.38;;;2.10;;
60612;SDS011;46443;59.792;17.626;2023-08-24T12:09:46;3.33;;;2.05;;
60612;SDS011;46443;59.792;17.626;2023-08-24T12:12:12;5.13;;;2.00;;
60612;SDS011;46443;59.792;17.626;2023-08-24T12:14:45;4.28;;;2.00;;
60612;SDS011;46443;59.792;17.626;2023-08-24T12:17:11;3.05;;;1.88;;
60612;SDS011;46443;59.792;17.626;2023-08-24T12:22:23;2.58;;;1.50;;
60612;SDS011;46443;59.792;17.626;2023-08-24T12:24:49;3.42;;;1.80;;
60612;SDS011;46443;59.792;17.626;2023-08-24T12:27:19;3.30;;;1.60;;
60612;SDS011;46443;59.792;17.626;2023-08-24T12:32:11;2.03;;;1.50;;
60612;SDS011;46443;59.792;17.626;2023-08-24T12:34:37;1.98;;;1.48;;
60612;SDS011;46443;59.792;17.626;2023-08-24T12:37:03;2.70;;;1.60;;
60612;SDS011;46443;59.792;17.626;2023-08-24T12:39:34;2.85;;;1.70;;
60612;SDS011;46443;59.792;17.626;2023-08-24T12:42:01;2.00;;;1.42;;
60612;SDS011;46443;59.792;17.626;2023-08-24T12:44:27;2.45;;;1.48;;
60612;SDS011;46443;59.792;17.626;2023-08-24T12:46:53;3.15;;;1.73;;
60612;SDS011;46443;59.792;17.626;2023-08-24T12:49:19;2.67;;;1.55;;
60612;SDS011;46443;59.792;17.626;2023-08-24T12:51:45;1.30;;;1.20;;
60612;SDS011;46443;59.792;17.626;2023-08-24T12:54:12;1.95;;;1.50;;
60612;SDS011;46443;59.792;17.626;2023-08-24T12:56:39;2.35;;;1.35;;
60612;SDS011;46443;59.792;17.626;2023-08-24T12:59:08;2.53;;;1.40;;
60612;SDS011;46443;59.792;17.626;2023-08-24T13:01:34;2.53;;;1.60;;
60612;SDS011;46443;59.792;17.626;2023-08-24T13:04:00;2.20;;;1.60;;
60612;SDS011;46443;59.792;17.626;2023-08-24T13:06:26;2.03;;;1.52;;
60612;SDS011;46443;59.792;17.626;2023-08-24T13:08:53;2.42;;;1.67;;
60612;SDS011;46443;59.792;17.626;2023-08-24T13:11:21;3.20;;;1.70;;
60612;SDS011;46443;59.792;17.626;2023-08-24T13:13:47;4.55;;;1.85;;
60612;SDS011;46443;59.792;17.626;2023-08-24T13:16:14;3.13;;;2.00;;
60612;SDS011;46443;59.792;17.626;2023-08-24T13:18:40;5.43;;;2.00;;
60612;SDS011;46443;59.792;17.626;2023-08-24T13:21:06;3.40;;;1.83;;
60612;SDS011;46443;59.792;17.626;2023-08-24T13:23:32;3.00;;;1.90;;
60612;SDS011;46443;59.792;17.626;2023-08-24T13:25:59;2.95;;;1.80;;
60612;SDS011;46443;59.792;17.626;2023-08-24T13:28:25;2.35;;;1.70;;
60612;SDS011;46443;59.792;17.626;2023-08-24T13:30:51;2.40;;;1.70;;
60612;SDS011;46443;59.792;17.626;2023-08-24T13:33:17;2.97;;;1.83;;
60612;SDS011;46443;59.792;17.626;2023-08-24T13:35:44;2.63;;;1.77;;
60612;SDS011;46443;59.792;17.626;2023-08-24T13:38:10;3.08;;;2.00;;
60612;SDS011;46443;59.792;17.626;2023-08-24T13:40:37;3.85;;;1.95;;
60612;SDS011;46443;59.792;17.626;2023-08-24T13:43:03;3.72;;;1.70;;
60612;SDS011;46443;59.792;17.626;2023-08-24T13:45:29;3.33;;;1.80;;
60612;SDS011;46443;59.792;17.626;2023-08-24T13:47:56;4.80;;;2.00;;
60612;SDS011;46443;59.792;17.626;2023-08-24T13:50:22;4.65;;;2.10;;
60612;SDS011;46443;59.792;17.626;2023-08-24T13:52:49;3.65;;;1.83;;
60612;SDS011;46443;59.792;17.626;2023-08-24T13:55:15;4.10;;;2.00;;
60612;SDS011;46443;59.792;17.626;2023-08-24T13:57:42;4.10;;;1.98;;
60612;SDS011;46443;59.792;17.626;2023-08-24T14:00:08;2.78;;;2.03;;
60612;SDS011;46443;59.792;17.626;2023-08-24T14:02:35;3.22;;;1.90;;
60612;SDS011;46443;59.792;17.626;2023-08-24T14:05:01;3.33;;;2.10;;
60612;SDS011;46443;59.792;17.626;2023-08-24T14:07:27;3.30;;;2.05;;
60612;SDS011;46443;59.792;17.626;2023-08-24T14:09:53;3.78;;;2.25;;
60612;SDS011;46443;59.792;17.626;2023-08-24T14:12:19;3.33;;;2.05;;
60612;SDS011;46443;59.792;17.626;2023-08-24T14:14:45;3.67;;;2.10;;
60612;SDS011;46443;59.792;17.626;2023-08-24T14:17:11;3.72;;;1.90;;
60612;SDS011;46443;59.792;17.626;2023-08-24T14:19:37;5.38;;;2.20;;
60612;SDS011;46443;59.792;17.626;2023-08-24T14:22:03;4.55;;;1.95;;
60612;SDS011;46443;59.792;17.626;2023-08-24T14:24:30;3.33;;;1.73;;
60612;SDS011;46443;59.792;17.626;2023-08-24T14:26:56;3.92;;;1.80;;
60612;SDS011;46443;59.792;17.626;2023-08-24T14:29:22;3.15;;;2.08;;
60612;SDS011;46443;59.792;17.626;2023-08-24T14:31:48;4.13;;;2.10;;
60612;SDS011;46443;59.792;17.626;2023-08-24T14:34:14;3.88;;;2.08;;
60612;SDS011;46443;59.792;17.626;2023-08-24T14:36:40;3.50;;;2.00;;
60612;SDS011;46443;59.792;17.626;2023-08-24T14:39:06;4.22;;;2.30;;
60612;SDS011;46443;59.792;17.626;2023-08-24T14:41:32;3.13;;;1.90;;
60612;SDS011;46443;59.792;17.626;2023-08-24T14:43:58;2.83;;;2.13;;
60612;SDS011;46443;59.792;17.626;2023-08-24T14:46:24;5.03;;;2.13;;
60612;SDS011;46443;59.792;17.626;2023-08-24T14:48:50;3.42;;;2.17;;
60612;SDS011;46443;59.792;17.626;2023-08-24T14:51:16;3.70;;;1.90;;
60612;SDS011;46443;59.792;17.626;2023-08-24T14:53:43;4.30;;;2.03;;
60612;SDS011;46443;59.792;17.626;2023-08-24T14:56:09;5.20;;;2.30;;